createdAt,value
2023-04-26T00:01:07.945Z,100197.84
2023-04-26T00:04:12.218Z,100198.97
2023-04-26T00:07:16.608Z,100196.94
2023-04-26T00:10:21.116Z,100193.72
2023-04-26T00:13:25.274Z,100196.78
2023-04-26T00:16:29.884Z,100199.66
2023-04-26T00:19:34.630Z,100196.53
2023-04-26T00:22:39.776Z,100179.59
2023-04-26T00:25:43.863Z,100198.19
2023-04-26T00:28:47.769Z,100201.59
2023-04-26T00:31:52.055Z,100210.81
2023-04-26T00:34:56.361Z,100203.94
2023-04-26T00:38:00.746Z,100195.50
2023-04-26T00:41:05.384Z,100197.16
2023-04-26T00:44:09.424Z,100197.38
2023-04-26T00:47:13.763Z,100187.72
2023-04-26T00:50:18.551Z,100171.75
2023-04-26T00:53:24.424Z,100183.88
2023-04-26T00:56:29.439Z,100185.38
2023-04-26T00:59:36.118Z,100186.72
2023-04-26T01:02:40.765Z,100184.16
2023-04-26T01:05:45.567Z,100185.88
2023-04-26T01:08:53.505Z,100174.84
2023-04-26T01:11:59.337Z,100157.72
2023-04-26T01:15:05.682Z,100177.00
2023-04-26T01:18:10.451Z,100173.25
2023-04-26T01:21:22.635Z,100172.75
2023-04-26T01:24:27.482Z,100114.19
2023-04-26T01:27:31.513Z,100173.59
2023-04-26T01:30:35.509Z,100171.41
2023-04-26T01:33:40.404Z,100167.09
2023-04-26T01:36:45.253Z,100192.59
2023-04-26T01:39:50.104Z,100176.22
2023-04-26T01:42:57.916Z,100158.66
2023-04-26T01:46:05.444Z,100181.44
2023-04-26T01:49:10.186Z,100182.53
2023-04-26T01:52:14.587Z,100174.56
2023-04-26T01:55:18.765Z,100162.94
2023-04-26T01:58:23.428Z,100171.22
2023-04-26T02:01:28.298Z,100148.66
2023-04-26T02:04:33.332Z,100162.56
2023-04-26T02:07:37.751Z,100152.16
2023-04-26T02:10:42.652Z,100155.34
2023-04-26T02:13:47.345Z,100173.59
2023-04-26T02:16:52.788Z,100125.97
2023-04-26T02:19:57.874Z,100161.25
2023-04-26T02:23:02.500Z,100151.75
2023-04-26T02:26:06.392Z,100150.63
2023-04-26T02:29:10.620Z,100164.91
2023-04-26T02:32:15.521Z,100168.84
2023-04-26T02:35:19.950Z,100151.75
2023-04-26T02:38:27.072Z,100152.44
2023-04-26T02:41:34.218Z,100154.63
2023-04-26T02:44:40.363Z,100135.81
2023-04-26T02:47:45.736Z,100152.41
2023-04-26T02:50:50.236Z,100143.44
2023-04-26T02:53:54.974Z,100153.09
2023-04-26T02:56:59.766Z,100152.69
2023-04-26T03:00:06.471Z,100148.59
2023-04-26T03:03:13.426Z,100134.06
2023-04-26T03:06:18.077Z,100148.78
2023-04-26T03:09:23.098Z,100150.88
2023-04-26T03:12:28.670Z,100124.91
2023-04-26T03:15:33.386Z,100153.22
2023-04-26T03:18:38.269Z,100144.06
2023-04-26T03:21:43.965Z,100134.69
2023-04-26T03:24:48.532Z,100113.00
2023-04-26T03:27:53.610Z,100142.06
2023-04-26T03:30:58.096Z,100134.91
2023-04-26T03:34:02.675Z,100135.31
2023-04-26T03:37:08.051Z,100140.38
2023-04-26T03:40:13.618Z,100146.63
2023-04-26T03:43:18.013Z,100134.25
2023-04-26T03:46:22.080Z,100133.19
2023-04-26T03:49:27.095Z,100110.25
2023-04-26T03:52:32.702Z,100132.66
2023-04-26T03:55:37.388Z,100074.81
2023-04-26T03:58:42.943Z,100105.28
2023-04-26T04:01:48.296Z,100094.75
2023-04-26T04:04:53.300Z,100120.97
2023-04-26T04:07:58.086Z,100128.91
2023-04-26T04:11:03.080Z,100124.84
2023-04-26T04:14:08.633Z,100131.81
2023-04-26T04:17:12.855Z,100102.03
2023-04-26T04:20:17.386Z,100130.69
2023-04-26T04:23:22.346Z,100138.50
2023-04-26T04:26:27.254Z,100121.19
2023-04-26T04:29:32.429Z,100127.22
2023-04-26T04:32:37.935Z,100126.66
2023-04-26T04:35:44.141Z,100111.50
2023-04-26T04:38:48.160Z,100112.47
2023-04-26T04:41:55.206Z,100116.81
2023-04-26T04:45:00.817Z,100112.75
2023-04-26T04:48:07.891Z,100105.63
2023-04-26T04:51:12.874Z,100125.13
2023-04-26T04:54:19.359Z,100127.59
2023-04-26T04:57:24.479Z,100119.31
2023-04-26T05:00:29.633Z,100087.47
2023-04-26T05:03:49.714Z,100099.47
2023-04-26T05:06:54.396Z,100117.06
2023-04-26T05:10:00.859Z,100118.72
2023-04-26T05:13:09.048Z,100112.47
2023-04-26T05:16:14.496Z,100097.53
2023-04-26T05:19:18.939Z,100101.41
2023-04-26T05:22:23.376Z,100116.75
2023-04-26T05:25:28.626Z,100092.09
2023-04-26T05:28:41.466Z,100092.38
2023-04-26T05:32:14.645Z,100080.41
2023-04-26T05:35:18.612Z,100101.16
2023-04-26T05:38:23.329Z,100079.13
2023-04-26T05:41:28.214Z,100099.25
2023-04-26T05:44:32.921Z,100077.22
2023-04-26T05:47:37.702Z,100091.81
2023-04-26T05:50:41.794Z,100059.84
2023-04-26T05:53:45.988Z,100079.03
2023-04-26T05:56:50.654Z,100086.84
2023-04-26T05:59:55.105Z,100087.88
2023-04-26T06:03:00.169Z,100100.53
2023-04-26T06:06:04.690Z,100095.91
2023-04-26T06:09:09.462Z,100099.59
2023-04-26T06:12:14.002Z,100079.78
2023-04-26T06:15:21.341Z,100133.75
2023-04-26T06:18:25.785Z,100121.50
2023-04-26T06:21:36.228Z,100126.69
2023-04-26T06:24:40.247Z,100121.09
2023-04-26T06:27:44.692Z,100119.03
2023-04-26T06:30:49.505Z,100128.59
2023-04-26T06:33:54.324Z,100143.25
2023-04-26T06:36:59.035Z,100135.50
2023-04-26T06:40:10.005Z,100123.03
2023-04-26T06:43:14.187Z,100137.47
2023-04-26T06:46:44.427Z,100151.94
2023-04-26T06:49:48.442Z,100157.41
2023-04-26T06:52:53.024Z,100163.47
2023-04-26T06:55:59.010Z,100142.09
2023-04-26T06:59:07.908Z,100157.19
2023-04-26T07:02:13.352Z,100149.19
2023-04-26T07:05:19.492Z,100155.38
2023-04-26T07:08:23.608Z,100160.53
2023-04-26T07:11:27.844Z,100161.81
2023-04-26T07:14:32.729Z,100162.56
2023-04-26T07:17:37.520Z,100161.38
2023-04-26T07:20:41.707Z,100159.31
2023-04-26T07:23:45.603Z,100167.88
2023-04-26T07:26:50.111Z,100160.72
2023-04-26T07:29:57.445Z,100140.47
2023-04-26T07:33:01.494Z,100167.03
2023-04-26T07:36:06.441Z,100174.94
2023-04-26T07:39:12.561Z,100164.88
2023-04-26T07:42:16.682Z,100178.41
2023-04-26T07:45:20.725Z,100152.09
2023-04-26T07:48:25.503Z,100177.28
2023-04-26T07:51:30.233Z,100182.38
2023-04-26T07:54:34.842Z,100182.41
2023-04-26T07:57:41.051Z,100184.84
2023-04-26T08:00:45.600Z,100169.56
2023-04-26T08:03:50.890Z,100189.00
2023-04-26T08:06:54.945Z,100189.09
2023-04-26T08:09:59.275Z,100201.50
2023-04-26T08:13:04.172Z,100198.13
2023-04-26T08:16:08.769Z,100189.97
2023-04-26T08:19:13.371Z,100190.56
2023-04-26T08:22:18.172Z,100170.84
2023-04-26T08:25:22.268Z,100188.16
2023-04-26T08:28:26.711Z,100176.72
2023-04-26T08:31:30.559Z,100164.25
2023-04-26T08:34:34.585Z,100168.63
2023-04-26T08:37:39.218Z,100178.16
2023-04-26T08:40:47.872Z,100179.00
2023-04-26T08:43:53.822Z,100186.75
2023-04-26T08:47:11.484Z,100190.22
2023-04-26T08:50:21.508Z,100188.03
2023-04-26T08:53:26.272Z,100167.88
2023-04-26T08:56:30.414Z,100143.75
2023-04-26T08:59:45.314Z,100180.78
2023-04-26T09:02:54.407Z,100148.38
2023-04-26T09:06:01.091Z,100165.47
2023-04-26T09:09:08.993Z,100142.13
2023-04-26T09:12:13.011Z,100185.91
2023-04-26T09:15:17.644Z,100175.13
2023-04-26T09:18:24.281Z,100185.03
2023-04-26T09:21:40.436Z,100182.88
2023-04-26T09:24:49.098Z,100200.28
2023-04-26T09:27:53.724Z,100160.44
2023-04-26T09:30:57.802Z,100185.69
2023-04-26T09:34:02.124Z,100170.84
2023-04-26T09:37:06.735Z,100200.09
2023-04-26T09:40:20.813Z,100188.94
2023-04-26T09:43:24.916Z,100200.53
2023-04-26T09:46:28.841Z,100203.31
2023-04-26T09:49:34.984Z,100206.09
2023-04-26T09:52:48.388Z,100152.13
2023-04-26T09:55:53.080Z,100207.41
2023-04-26T09:59:01.400Z,100216.34
2023-04-26T10:02:06.265Z,100230.72
2023-04-26T10:05:11.238Z,100231.81
2023-04-26T10:08:16.447Z,100212.78
2023-04-26T10:11:23.316Z,100226.09
2023-04-26T10:14:29.548Z,100235.91
2023-04-26T10:17:33.913Z,100235.97
2023-04-26T10:20:43.135Z,100241.38
2023-04-26T10:23:50.222Z,100238.13
2023-04-26T10:26:57.794Z,100240.09
2023-04-26T10:30:05.906Z,100245.44
2023-04-26T10:33:14.964Z,100248.16
2023-04-26T10:36:21.933Z,100242.41
2023-04-26T10:39:28.987Z,100251.44
2023-04-26T10:42:33.219Z,100246.22
2023-04-26T10:45:38.484Z,100234.28
2023-04-26T10:48:42.809Z,100257.16
2023-04-26T10:52:13.305Z,100271.41
2023-04-26T10:55:43.260Z,100221.91
2023-04-26T10:58:48.820Z,100243.78
2023-04-26T11:01:54.056Z,100283.09
2023-04-26T11:04:59.583Z,100260.50
2023-04-26T11:08:07.928Z,100283.66
2023-04-26T11:11:15.758Z,100285.38
2023-04-26T11:14:20.373Z,100284.63
2023-04-26T11:17:40.048Z,100294.34
2023-04-26T11:20:54.950Z,100277.75
2023-04-26T11:23:59.065Z,100288.28
2023-04-26T11:27:10.581Z,100302.25
2023-04-26T11:30:15.329Z,100299.69
2023-04-26T11:33:23.167Z,100290.97
2023-04-26T11:36:28.033Z,100283.97
2023-04-26T11:39:34.227Z,100293.75
2023-04-26T11:42:39.034Z,100292.00
2023-04-26T11:45:43.982Z,100320.84
2023-04-26T11:48:48.724Z,100307.78
2023-04-26T11:51:53.475Z,100316.59
2023-04-26T11:55:07.309Z,100322.78
2023-04-26T11:58:15.966Z,100319.28
2023-04-26T12:01:29.506Z,100329.81
2023-04-26T12:04:38.743Z,100322.78
2023-04-26T12:07:43.605Z,100338.56
2023-04-26T12:10:48.291Z,100336.81
2023-04-26T12:13:54.318Z,100340.31
2023-04-26T12:17:04.203Z,100335.94
2023-04-26T12:20:13.156Z,100316.72
2023-04-26T12:23:19.087Z,100327.19
2023-04-26T12:26:23.716Z,100317.56
2023-04-26T12:29:31.338Z,100346.44
2023-04-26T12:32:36.224Z,100343.81
2023-04-26T12:35:40.966Z,100343.75
2023-04-26T12:38:45.513Z,100355.13
2023-04-26T12:41:50.457Z,100344.63
2023-04-26T12:44:54.829Z,100352.44
2023-04-26T12:47:59.053Z,100340.97
2023-04-26T12:51:04.156Z,100355.91
2023-04-26T12:54:10.108Z,100352.38
2023-04-26T12:57:15.434Z,100351.44
2023-04-26T13:00:22.063Z,100364.53
2023-04-26T13:03:27.111Z,100359.22
2023-04-26T13:06:33.057Z,100359.03
2023-04-26T13:09:37.134Z,100354.50
2023-04-26T13:12:43.612Z,100363.22
2023-04-26T13:15:49.287Z,100362.50
2023-04-26T13:18:53.900Z,100357.34
2023-04-26T13:21:58.572Z,100330.94
2023-04-26T13:25:03.246Z,100343.09
2023-04-26T13:28:08.575Z,100365.66
2023-04-26T13:31:12.679Z,100370.06
2023-04-26T13:34:17.254Z,100368.56
2023-04-26T13:37:23.180Z,100370.41
2023-04-26T13:40:27.801Z,100375.38
2023-04-26T13:43:33.866Z,100374.31
2023-04-26T13:46:38.554Z,100378.53
2023-04-26T13:49:43.076Z,100322.59
2023-04-26T13:52:47.694Z,100383.06
2023-04-26T13:55:51.665Z,100387.38
2023-04-26T13:59:02.207Z,100326.78
2023-04-26T14:02:06.780Z,100383.78
2023-04-26T14:05:11.249Z,100384.53
2023-04-26T14:08:15.584Z,100386.09
2023-04-26T14:11:20.227Z,100392.41
2023-04-26T14:14:24.448Z,100376.78
2023-04-26T14:17:29.973Z,100394.03
2023-04-26T14:20:34.559Z,100395.53
2023-04-26T14:23:38.987Z,100386.03
2023-04-26T14:26:43.087Z,100400.72
2023-04-26T14:29:46.857Z,100363.94
2023-04-26T14:32:51.425Z,100404.16
2023-04-26T14:35:57.133Z,100407.31
2023-04-26T14:39:01.611Z,100408.28
2023-04-26T14:42:06.531Z,100407.56
2023-04-26T14:45:11.654Z,100416.97
2023-04-26T14:48:16.950Z,100417.72
2023-04-26T14:51:23.930Z,100339.69
2023-04-26T14:54:27.748Z,100411.53
2023-04-26T14:57:33.604Z,100415.88
2023-04-26T15:00:39.758Z,100409.69
2023-04-26T15:03:44.171Z,100413.03
2023-04-26T15:06:48.802Z,100394.69
2023-04-26T15:09:53.328Z,100410.34
2023-04-26T15:12:57.856Z,100432.13
2023-04-26T15:16:08.419Z,100427.47
2023-04-26T15:19:13.289Z,100412.75
2023-04-26T15:22:17.821Z,100409.09
2023-04-26T15:25:22.585Z,100426.69
2023-04-26T15:28:26.972Z,100443.16
2023-04-26T15:31:31.078Z,100446.69
2023-04-26T15:34:41.588Z,100451.25
2023-04-26T15:37:46.453Z,100452.38
2023-04-26T15:40:54.699Z,100449.56
2023-04-26T15:44:00.301Z,100438.47
2023-04-26T15:47:04.736Z,100453.91
2023-04-26T15:50:10.044Z,100462.56
2023-04-26T15:53:14.571Z,100450.38
2023-04-26T15:56:18.641Z,100457.50
2023-04-26T15:59:23.201Z,100464.38
2023-04-26T16:02:27.457Z,100412.00
2023-04-26T16:05:32.475Z,100442.97
2023-04-26T16:08:40.342Z,100463.19
2023-04-26T16:11:45.399Z,100465.56
2023-04-26T16:14:52.007Z,100459.25
2023-04-26T16:17:56.215Z,100462.38
2023-04-26T16:21:10.357Z,100454.66
2023-04-26T16:24:14.837Z,100454.69
2023-04-26T16:27:21.852Z,100433.53
2023-04-26T16:30:26.412Z,100459.59
2023-04-26T16:33:30.713Z,100457.78
2023-04-26T16:36:34.764Z,100458.66
2023-04-26T16:39:39.197Z,100463.47
2023-04-26T16:42:45.312Z,100459.72
2023-04-26T16:45:59.156Z,100454.50
2023-04-26T16:49:10.004Z,100457.75
2023-04-26T16:52:14.165Z,100469.63
2023-04-26T16:55:18.328Z,100467.16
2023-04-26T16:58:23.141Z,100474.81
2023-04-26T17:01:27.652Z,100478.50
2023-04-26T17:04:32.610Z,100475.66
2023-04-26T17:07:37.862Z,100475.22
2023-04-26T17:10:43.141Z,100475.84
2023-04-26T17:13:47.235Z,100474.25
2023-04-26T17:16:51.668Z,100492.56
2023-04-26T17:19:56.200Z,100448.53
2023-04-26T17:23:02.173Z,100484.97
2023-04-26T17:26:06.203Z,100488.38
2023-04-26T17:29:10.461Z,100477.53
2023-04-26T17:32:14.454Z,100462.09
2023-04-26T17:35:18.938Z,100486.69
2023-04-26T17:38:22.968Z,100475.88
2023-04-26T17:41:27.022Z,100474.97
2023-04-26T17:44:31.023Z,100480.91
2023-04-26T17:47:35.185Z,100486.13
2023-04-26T17:50:39.397Z,100482.31
2023-04-26T17:53:43.715Z,100489.09
2023-04-26T17:56:48.572Z,100487.59
2023-04-26T17:59:53.021Z,100488.59
2023-04-26T18:02:58.624Z,100488.53
2023-04-26T18:06:02.812Z,100494.69
2023-04-26T18:09:07.972Z,100498.22
2023-04-26T18:12:12.463Z,100505.06
2023-04-26T18:15:16.243Z,100513.38
2023-04-26T18:18:20.474Z,100515.59
2023-04-26T18:21:24.698Z,100509.88
2023-04-26T18:24:29.155Z,100507.19
2023-04-26T18:27:33.873Z,100509.25
2023-04-26T18:30:37.937Z,100500.38
2023-04-26T18:33:42.408Z,100505.16
2023-04-26T18:36:46.758Z,100509.88
2023-04-26T18:39:50.890Z,100499.03
2023-04-26T18:42:55.494Z,100480.69
2023-04-26T18:46:00.221Z,100496.31
2023-04-26T18:49:05.044Z,100503.78
2023-04-26T18:52:09.663Z,100497.81
2023-04-26T18:55:14.370Z,100495.16
2023-04-26T18:58:18.801Z,100473.56
2023-04-26T19:01:23.720Z,100496.63
2023-04-26T19:04:29.007Z,100508.00
2023-04-26T19:07:33.251Z,100497.03
2023-04-26T19:10:37.775Z,100504.31
2023-04-26T19:13:42.664Z,100503.63
2023-04-26T19:16:47.926Z,100507.00
2023-04-26T19:19:52.974Z,100502.38
2023-04-26T19:22:57.444Z,100514.06
2023-04-26T19:26:09.977Z,100517.78
2023-04-26T19:29:14.401Z,100498.03
2023-04-26T19:32:20.635Z,100491.34
2023-04-26T19:35:25.216Z,100492.97
2023-04-26T19:38:30.162Z,100501.22
2023-04-26T19:41:34.759Z,100507.34
2023-04-26T19:44:40.738Z,100515.81
2023-04-26T19:47:45.234Z,100494.44
2023-04-26T19:50:50.091Z,100525.59
2023-04-26T19:53:54.953Z,100516.13
2023-04-26T19:56:59.952Z,100498.31
2023-04-26T20:00:05.806Z,100511.28
2023-04-26T20:03:11.761Z,100496.06
2023-04-26T20:06:16.833Z,100483.94
2023-04-26T20:09:21.895Z,100510.13
2023-04-26T20:12:26.395Z,100528.03
2023-04-26T20:15:32.991Z,100496.88
2023-04-26T20:18:38.475Z,100463.97
2023-04-26T20:21:43.022Z,100501.41
2023-04-26T20:24:47.536Z,100506.13
2023-04-26T20:27:52.376Z,100513.31
2023-04-26T20:30:57.111Z,100502.91
2023-04-26T20:34:01.822Z,100491.72
2023-04-26T20:37:06.715Z,100503.22
2023-04-26T20:40:11.687Z,100497.75
2023-04-26T20:43:16.915Z,100499.47
2023-04-26T20:46:21.923Z,100503.84
2023-04-26T20:49:26.405Z,100508.31
2023-04-26T20:52:31.032Z,100509.44
2023-04-26T20:55:35.840Z,100513.38
2023-04-26T20:58:41.953Z,100512.03
2023-04-26T21:01:46.499Z,100493.47
2023-04-26T21:04:51.425Z,100523.56
2023-04-26T21:07:56.328Z,100527.84
2023-04-26T21:11:00.976Z,100516.78
2023-04-26T21:14:06.063Z,100522.16
2023-04-26T21:17:10.590Z,100517.91
2023-04-26T21:20:15.376Z,100518.78
2023-04-26T21:23:20.293Z,100533.72
2023-04-26T21:26:24.894Z,100537.78
2023-04-26T21:29:29.521Z,100527.63
2023-04-26T21:32:34.255Z,100531.00
2023-04-26T21:35:38.357Z,100532.16
2023-04-26T21:38:42.339Z,100539.25
2023-04-26T21:41:46.725Z,100542.47
2023-04-26T21:44:51.156Z,100554.72
2023-04-26T21:47:56.791Z,100539.22
2023-04-26T21:51:04.839Z,100554.22
2023-04-26T21:54:08.985Z,100536.88
2023-04-26T21:57:13.707Z,100523.06
2023-04-26T22:00:18.924Z,100544.19
2023-04-26T22:03:24.537Z,100544.25
2023-04-26T22:06:29.837Z,100550.38
2023-04-26T22:09:33.713Z,100549.56
2023-04-26T22:12:38.065Z,100553.91
2023-04-26T22:15:42.780Z,100543.44
2023-04-26T22:18:46.986Z,100539.09
2023-04-26T22:21:51.432Z,100548.66
2023-04-26T22:24:56.460Z,100512.38
2023-04-26T22:28:00.659Z,100522.91
2023-04-26T22:31:04.688Z,100525.66
2023-04-26T22:34:09.181Z,100489.06
2023-04-26T22:37:21.115Z,100520.25
2023-04-26T22:40:26.410Z,100533.28
2023-04-26T22:43:31.098Z,100529.59
2023-04-26T22:46:35.946Z,100526.97
2023-04-26T22:49:40.463Z,100520.97
2023-04-26T22:52:44.707Z,100522.59
2023-04-26T22:55:49.628Z,100516.41
2023-04-26T22:58:54.454Z,100509.25
2023-04-26T23:01:59.036Z,100511.63
2023-04-26T23:09:23.612Z,100524.63
2023-04-26T23:12:58.261Z,100513.03
2023-04-26T23:17:09.238Z,100505.78
2023-04-26T23:26:28.283Z,100458.97
2023-04-26T23:29:43.196Z,100528.56
2023-04-26T23:32:47.776Z,100527.56
2023-04-26T23:35:53.056Z,100525.41
2023-04-26T23:38:57.692Z,100518.31
2023-04-26T23:42:02.115Z,100450.59
2023-04-26T23:45:08.576Z,100507.19
2023-04-26T23:48:13.322Z,100515.56
2023-04-26T23:51:18.128Z,100507.25
2023-04-26T23:54:22.580Z,100503.81
2023-04-26T23:57:27.405Z,100499.97
